createdAt,value
2023-10-18T00:01:33.090Z,10.69
2023-10-18T00:04:00.191Z,10.85
2023-10-18T00:06:29.962Z,10.74
2023-10-18T00:08:56.986Z,10.24
2023-10-18T00:11:24.224Z,10.34
2023-10-18T00:13:51.222Z,10.71
2023-10-18T00:16:18.441Z,10.76
2023-10-18T00:18:45.562Z,10.46
2023-10-18T00:21:12.640Z,11.11
2023-10-18T00:23:42.241Z,11.07
2023-10-18T00:26:10.563Z,10.79
2023-10-18T00:28:38.119Z,10.80
2023-10-18T00:31:12.949Z,11.10
2023-10-18T00:33:40.174Z,11.60
2023-10-18T00:36:07.867Z,11.52
2023-10-18T00:38:34.861Z,11.37
2023-10-18T00:41:04.500Z,12.04
2023-10-18T00:43:31.568Z,12.14
2023-10-18T00:45:58.809Z,12.65
2023-10-18T00:48:27.926Z,11.81
2023-10-18T00:50:58.155Z,11.65
2023-10-18T00:53:26.242Z,11.79
2023-10-18T00:55:56.267Z,12.58
2023-10-18T00:58:26.375Z,12.29
2023-10-18T01:00:54.420Z,11.81
2023-10-18T01:03:21.620Z,12.33
2023-10-18T01:05:59.542Z,11.84
2023-10-18T01:08:26.584Z,11.90
2023-10-18T01:10:53.586Z,11.85
2023-10-18T01:13:20.585Z,12.21
2023-10-18T01:15:50.215Z,11.78
2023-10-18T01:18:17.253Z,12.55
2023-10-18T01:20:44.221Z,12.05
2023-10-18T01:23:11.186Z,12.13
2023-10-18T01:25:40.764Z,12.53
2023-10-18T01:28:07.742Z,12.44
2023-10-18T01:30:34.928Z,12.23
2023-10-18T01:33:02.096Z,11.92
2023-10-18T01:35:29.141Z,12.73
2023-10-18T01:37:56.160Z,12.45
2023-10-18T01:40:23.213Z,12.25
2023-10-18T01:42:53.789Z,12.28
2023-10-18T01:45:20.803Z,12.23
2023-10-18T01:50:19.722Z,12.22
2023-10-18T01:52:48.813Z,12.65
2023-10-18T01:55:16.408Z,12.72
2023-10-18T01:57:43.496Z,12.99
2023-10-18T02:00:14.163Z,12.27
2023-10-18T02:02:41.223Z,12.69
2023-10-18T02:05:08.939Z,12.53
2023-10-18T02:07:35.950Z,12.17
2023-10-18T02:10:03.048Z,12.47
2023-10-18T02:12:30.137Z,12.55
2023-10-18T02:14:57.185Z,13.04
2023-10-18T02:17:26.905Z,13.34
2023-10-18T02:19:54.048Z,13.13
2023-10-18T02:22:21.162Z,12.97
2023-10-18T02:24:48.213Z,13.20
2023-10-18T02:27:15.254Z,13.45
2023-10-18T02:29:42.258Z,13.25
2023-10-18T02:32:09.695Z,13.67
2023-10-18T02:34:39.316Z,13.03
2023-10-18T02:37:06.494Z,13.15
2023-10-18T02:39:33.614Z,12.94
2023-10-18T02:42:00.741Z,13.27
2023-10-18T02:44:27.734Z,13.76
2023-10-18T02:46:56.455Z,13.49
2023-10-18T02:49:23.718Z,13.14
2023-10-18T02:51:53.296Z,13.56
2023-10-18T02:54:20.657Z,13.88
2023-10-18T02:56:48.452Z,13.30
2023-10-18T02:59:15.460Z,13.31
2023-10-18T03:01:42.560Z,13.29
2023-10-18T03:04:09.902Z,13.09
2023-10-18T03:06:37.473Z,13.32
2023-10-18T03:09:07.201Z,13.40
2023-10-18T03:11:34.190Z,13.60
2023-10-18T03:14:01.189Z,13.94
2023-10-18T03:16:29.152Z,13.44
2023-10-18T03:18:56.397Z,13.90
2023-10-18T03:21:23.482Z,13.66
2023-10-18T03:23:51.157Z,14.41
2023-10-18T03:26:21.686Z,14.63
2023-10-18T03:28:48.860Z,14.18
2023-10-18T03:31:15.931Z,14.26
2023-10-18T03:33:42.957Z,14.78
2023-10-18T03:36:20.152Z,13.87
2023-10-18T03:38:48.911Z,14.21
2023-10-18T03:41:20.289Z,14.20
2023-10-18T03:43:47.391Z,14.02
2023-10-18T03:46:14.707Z,14.38
2023-10-18T03:48:42.246Z,14.11
2023-10-18T03:51:09.321Z,14.74
2023-10-18T03:53:37.054Z,14.82
2023-10-18T03:56:04.279Z,15.15
2023-10-18T03:58:33.892Z,15.13
2023-10-18T04:01:00.890Z,14.86
2023-10-18T04:03:28.117Z,14.65
2023-10-18T04:05:55.080Z,15.49
2023-10-18T04:08:22.081Z,14.94
2023-10-18T04:10:57.679Z,14.73
2023-10-18T04:13:24.739Z,15.19
2023-10-18T04:15:54.286Z,15.15
2023-10-18T04:18:21.300Z,16.53
2023-10-18T04:20:48.276Z,15.98
2023-10-18T04:23:15.984Z,15.31
2023-10-18T04:25:43.385Z,15.79
2023-10-18T04:28:10.381Z,15.28
2023-10-18T04:30:37.448Z,15.23
2023-10-18T04:33:07.253Z,14.96
2023-10-18T04:35:34.416Z,15.18
2023-10-18T04:38:01.497Z,15.19
2023-10-18T04:40:28.513Z,15.45
2023-10-18T04:42:56.275Z,14.78
2023-10-18T04:45:23.738Z,15.19
2023-10-18T04:47:51.075Z,15.01
2023-10-18T04:50:21.257Z,15.37
2023-10-18T04:52:48.232Z,15.20
2023-10-18T04:55:15.797Z,15.17
2023-10-18T04:57:43.478Z,16.03
2023-10-18T05:00:12.088Z,16.30
2023-10-18T05:02:39.145Z,16.70
2023-10-18T05:05:07.819Z,16.66
2023-10-18T05:07:37.460Z,16.09
2023-10-18T05:10:06.968Z,15.76
2023-10-18T05:12:33.947Z,15.72
2023-10-18T05:15:00.963Z,16.11
2023-10-18T05:17:28.584Z,15.85
2023-10-18T05:19:55.612Z,16.81
2023-10-18T05:22:23.043Z,15.99
2023-10-18T05:24:56.098Z,15.98
2023-10-18T05:27:23.811Z,17.09
2023-10-18T05:29:51.060Z,17.82
2023-10-18T05:32:18.070Z,17.28
2023-10-18T05:34:45.942Z,17.09
2023-10-18T05:37:12.974Z,17.27
2023-10-18T05:39:40.021Z,17.14
2023-10-18T05:42:09.599Z,17.76
2023-10-18T05:44:36.796Z,18.05
2023-10-18T05:47:03.859Z,17.30
2023-10-18T05:49:31.185Z,18.20
2023-10-18T05:51:58.318Z,17.71
2023-10-18T05:54:25.912Z,17.26
2023-10-18T05:56:53.099Z,17.54
2023-10-18T05:59:23.087Z,17.21
2023-10-18T06:01:51.971Z,18.04
2023-10-18T06:04:19.163Z,18.04
2023-10-18T06:06:46.320Z,16.93
2023-10-18T06:09:13.347Z,17.31
2023-10-18T06:11:40.396Z,18.08
2023-10-18T06:14:07.581Z,17.91
2023-10-18T06:16:37.410Z,17.69
2023-10-18T06:19:05.242Z,17.15
2023-10-18T06:21:32.245Z,17.48
2023-10-18T06:23:59.220Z,17.32
2023-10-18T06:26:26.436Z,16.64
2023-10-18T06:28:53.416Z,17.41
2023-10-18T06:31:23.253Z,17.01
2023-10-18T06:33:53.208Z,17.21
2023-10-18T06:36:20.289Z,18.07
2023-10-18T06:38:49.933Z,17.41
2023-10-18T06:41:17.444Z,17.31
2023-10-18T06:43:44.458Z,17.37
2023-10-18T06:46:15.566Z,17.54
2023-10-18T06:48:43.541Z,17.09
2023-10-18T06:51:15.822Z,17.15
2023-10-18T06:53:42.867Z,16.90
2023-10-18T06:56:09.825Z,17.40
2023-10-18T06:58:36.858Z,17.66
2023-10-18T07:01:06.007Z,17.19
2023-10-18T07:03:33.227Z,17.64
2023-10-18T07:06:00.460Z,17.14
2023-10-18T07:08:30.102Z,16.91
2023-10-18T07:11:07.552Z,16.14
2023-10-18T07:13:44.430Z,16.95
2023-10-18T07:16:11.501Z,17.27
2023-10-18T07:18:38.582Z,17.22
2023-10-18T07:21:06.646Z,16.70
2023-10-18T07:23:37.484Z,16.10
2023-10-18T07:26:09.048Z,16.91
2023-10-18T07:28:36.372Z,16.90
2023-10-18T07:31:04.411Z,16.68
2023-10-18T07:33:31.451Z,16.32
2023-10-18T07:35:58.406Z,17.20
2023-10-18T07:38:25.409Z,16.74
2023-10-18T07:40:59.475Z,17.18
2023-10-18T07:43:26.723Z,17.03
2023-10-18T07:45:54.173Z,16.85
2023-10-18T07:48:21.521Z,16.57
2023-10-18T07:50:48.517Z,16.25
2023-10-18T07:53:15.560Z,16.00
2023-10-18T07:55:42.611Z,16.13
2023-10-18T07:58:12.328Z,16.59
2023-10-18T08:00:39.351Z,16.99
2023-10-18T08:03:06.506Z,17.02
2023-10-18T08:05:33.756Z,17.08
2023-10-18T08:08:00.918Z,17.20
2023-10-18T08:10:27.994Z,17.43
2023-10-18T08:12:55.213Z,17.18
2023-10-18T08:15:25.897Z,16.97
2023-10-18T08:17:52.867Z,17.85
2023-10-18T08:20:19.940Z,17.48
2023-10-18T08:22:47.865Z,17.49
2023-10-18T08:25:15.700Z,16.97
2023-10-18T08:27:42.664Z,17.01
2023-10-18T08:30:10.607Z,16.90
2023-10-18T08:32:40.219Z,17.01
2023-10-18T08:35:08.225Z,17.84
2023-10-18T08:37:35.340Z,17.52
2023-10-18T08:40:02.377Z,16.46
2023-10-18T08:42:34.195Z,17.68
2023-10-18T08:45:02.472Z,16.57
2023-10-18T08:47:31.695Z,16.90
2023-10-18T08:50:01.906Z,16.48
2023-10-18T08:52:33.589Z,16.26
2023-10-18T08:55:01.575Z,15.79
2023-10-18T08:57:28.808Z,16.34
2023-10-18T08:59:56.489Z,15.10
2023-10-18T09:02:23.633Z,15.43
2023-10-18T09:04:54.728Z,15.39
2023-10-18T09:07:28.122Z,15.43
2023-10-18T09:09:55.433Z,17.02
2023-10-18T09:12:25.515Z,15.71
2023-10-18T09:14:52.868Z,15.48
2023-10-18T09:17:19.901Z,15.37
2023-10-18T09:19:48.274Z,15.77
2023-10-18T09:22:15.593Z,15.33
2023-10-18T09:24:45.402Z,15.54
2023-10-18T09:27:12.681Z,15.78
2023-10-18T09:29:39.820Z,15.10
2023-10-18T09:32:07.124Z,14.85
2023-10-18T09:34:34.207Z,15.17
2023-10-18T09:37:01.826Z,15.15
2023-10-18T09:39:30.167Z,15.18
2023-10-18T09:41:59.760Z,15.45
2023-10-18T09:44:26.805Z,14.92
2023-10-18T09:46:54.893Z,14.35
2023-10-18T09:49:23.731Z,14.31
2023-10-18T09:51:52.908Z,14.74
2023-10-18T09:54:20.859Z,15.72
2023-10-18T09:56:48.592Z,15.45
2023-10-18T09:59:21.090Z,14.05
2023-10-18T10:01:48.770Z,14.06
2023-10-18T10:04:17.025Z,14.27
2023-10-18T10:06:44.860Z,13.59
2023-10-18T10:09:12.412Z,13.57
2023-10-18T10:11:41.125Z,13.75
2023-10-18T10:14:08.364Z,14.20
2023-10-18T10:16:43.852Z,13.45
2023-10-18T10:19:13.604Z,14.38
2023-10-18T10:21:43.256Z,13.45
2023-10-18T10:24:10.796Z,14.67
2023-10-18T10:26:38.406Z,13.77
2023-10-18T10:29:06.065Z,13.34
2023-10-18T10:31:55.011Z,13.52
2023-10-18T10:34:25.204Z,13.33
2023-10-18T10:36:53.231Z,13.41
2023-10-18T10:39:25.776Z,13.11
2023-10-18T10:41:54.848Z,13.79
2023-10-18T10:44:24.721Z,13.81
2023-10-18T10:47:26.983Z,14.09
2023-10-18T10:49:54.128Z,13.70
2023-10-18T10:52:21.238Z,14.18
2023-10-18T10:54:51.408Z,13.79
2023-10-18T10:57:19.903Z,13.16
2023-10-18T10:59:53.542Z,13.14
2023-10-18T11:02:36.913Z,13.89
2023-10-18T11:05:04.326Z,13.69
2023-10-18T11:10:04.894Z,13.98
2023-10-18T11:12:33.103Z,13.81
2023-10-18T11:15:01.591Z,14.03
2023-10-18T11:17:31.320Z,14.23
2023-10-18T11:19:58.447Z,14.11
2023-10-18T11:22:26.004Z,13.38
2023-10-18T11:24:54.487Z,13.14
2023-10-18T11:27:23.498Z,13.41
2023-10-18T11:29:51.839Z,13.65
2023-10-18T11:32:19.081Z,13.45
2023-10-18T11:34:48.810Z,13.18
2023-10-18T11:37:16.451Z,13.46
2023-10-18T11:39:43.800Z,14.37
2023-10-18T11:42:10.957Z,13.30
2023-10-18T11:44:38.258Z,12.35
2023-10-18T11:47:06.583Z,12.98
2023-10-18T11:49:38.361Z,12.39
2023-10-18T11:52:14.075Z,12.83
2023-10-18T11:54:41.168Z,12.58
2023-10-18T11:57:24.946Z,13.35
2023-10-18T11:59:53.494Z,12.69
2023-10-18T12:02:20.674Z,12.97
2023-10-18T12:04:47.906Z,12.46
2023-10-18T12:07:17.707Z,12.70
2023-10-18T12:09:44.814Z,12.82
2023-10-18T12:12:12.286Z,12.44
2023-10-18T12:14:39.344Z,12.12
2023-10-18T12:17:06.443Z,12.17
2023-10-18T12:19:33.702Z,11.63
2023-10-18T12:22:00.811Z,11.93
2023-10-18T12:24:30.507Z,11.75
2023-10-18T12:26:57.491Z,12.52
2023-10-18T12:29:24.505Z,12.29
2023-10-18T12:31:51.635Z,12.10
2023-10-18T12:34:18.781Z,11.43
2023-10-18T12:36:45.813Z,12.51
2023-10-18T12:39:12.853Z,12.16
2023-10-18T12:41:42.477Z,11.85
2023-10-18T12:44:09.586Z,11.78
2023-10-18T12:46:36.800Z,13.69
2023-10-18T12:49:03.952Z,12.16
2023-10-18T12:51:30.915Z,11.63
2023-10-18T12:53:57.962Z,11.69
2023-10-18T12:56:25.124Z,11.50
2023-10-18T12:58:55.246Z,10.76
2023-10-18T13:01:22.904Z,10.91
2023-10-18T13:03:50.417Z,11.71
2023-10-18T13:06:17.508Z,11.64
2023-10-18T13:08:45.319Z,12.09
2023-10-18T13:11:14.229Z,12.11
2023-10-18T13:13:44.759Z,12.68
2023-10-18T13:16:14.491Z,12.14
2023-10-18T13:18:41.729Z,12.22
2023-10-18T13:21:09.174Z,13.12
2023-10-18T13:23:36.250Z,12.69
2023-10-18T13:26:03.441Z,11.72
2023-10-18T13:28:30.484Z,11.35
2023-10-18T13:31:01.272Z,11.80
2023-10-18T13:33:30.885Z,11.99
2023-10-18T13:35:57.868Z,11.34
2023-10-18T13:38:24.915Z,12.01
2023-10-18T13:40:51.918Z,12.48
2023-10-18T13:43:20.685Z,11.58
2023-10-18T13:45:57.140Z,11.97
2023-10-18T13:48:24.215Z,11.33
2023-10-18T13:50:54.028Z,11.81
2023-10-18T13:53:21.883Z,11.46
2023-10-18T13:55:48.992Z,12.10
2023-10-18T13:58:16.042Z,11.53
2023-10-18T14:00:43.060Z,11.23
2023-10-18T14:03:10.226Z,11.40
2023-10-18T14:05:39.363Z,12.26
2023-10-18T14:08:09.099Z,12.81
2023-10-18T14:10:36.196Z,12.78
2023-10-18T14:13:03.687Z,12.85
2023-10-18T14:15:31.100Z,13.29
2023-10-18T14:17:58.290Z,12.63
2023-10-18T14:20:26.770Z,11.79
2023-10-18T14:22:54.025Z,11.60
2023-10-18T14:25:24.103Z,12.09
2023-10-18T14:27:51.141Z,12.06
2023-10-18T14:30:18.494Z,12.43
2023-10-18T14:32:45.946Z,12.21
2023-10-18T14:35:13.712Z,12.26
2023-10-18T14:37:40.974Z,12.69
2023-10-18T14:40:08.969Z,12.42
2023-10-18T14:42:38.710Z,11.44
2023-10-18T14:45:10.204Z,11.97
2023-10-18T14:47:37.318Z,11.75
2023-10-18T14:50:05.169Z,11.54
2023-10-18T14:52:32.178Z,10.96
2023-10-18T14:54:59.196Z,11.82
2023-10-18T14:57:26.226Z,11.34
2023-10-18T14:59:56.049Z,11.04
2023-10-18T15:02:23.083Z,13.54
2023-10-18T15:04:50.096Z,13.61
2023-10-18T15:07:17.211Z,11.55
2023-10-18T15:09:44.451Z,11.04
2023-10-18T15:12:13.663Z,10.93
2023-10-18T15:14:42.254Z,10.16
2023-10-18T15:17:12.058Z,9.79
2023-10-18T15:19:39.187Z,9.56
2023-10-18T15:22:06.217Z,10.22
2023-10-18T15:24:33.955Z,10.28
2023-10-18T15:27:01.022Z,10.54
2023-10-18T15:29:28.102Z,12.30
2023-10-18T15:31:55.089Z,12.65
2023-10-18T15:34:24.749Z,13.80
2023-10-18T15:36:51.742Z,12.97
2023-10-18T15:39:18.716Z,12.70
2023-10-18T15:41:45.940Z,12.94
2023-10-18T15:44:12.971Z,12.60
2023-10-18T15:46:40.025Z,11.54
2023-10-18T15:49:07.164Z,11.44
2023-10-18T15:51:36.927Z,11.77
2023-10-18T15:54:06.724Z,12.19
2023-10-18T15:56:35.606Z,12.99
2023-10-18T15:59:03.065Z,12.14
2023-10-18T16:01:33.626Z,12.84
2023-10-18T16:04:06.807Z,12.95
2023-10-18T16:06:36.623Z,13.64
2023-10-18T16:09:03.997Z,14.35
2023-10-18T16:11:31.037Z,15.17
2023-10-18T16:13:58.081Z,15.34
2023-10-18T16:16:25.206Z,16.26
2023-10-18T16:18:52.219Z,16.23
2023-10-18T16:21:19.206Z,17.93
2023-10-18T16:23:48.757Z,18.00
2023-10-18T16:26:20.516Z,15.70
2023-10-18T16:28:48.204Z,16.83
2023-10-18T16:31:15.405Z,16.94
2023-10-18T16:33:43.696Z,17.59
2023-10-18T16:36:11.232Z,17.40
2023-10-18T16:38:38.272Z,17.91
2023-10-18T16:41:09.135Z,18.39
2023-10-18T16:43:37.978Z,18.49
2023-10-18T16:46:05.383Z,18.53
2023-10-18T16:48:32.499Z,18.52
2023-10-18T16:51:02.408Z,18.02
2023-10-18T16:53:30.653Z,18.20
2023-10-18T16:55:57.899Z,17.46
2023-10-18T16:58:27.608Z,18.99
2023-10-18T17:00:58.146Z,17.19
2023-10-18T17:03:25.676Z,16.70
2023-10-18T17:05:55.953Z,16.94
2023-10-18T17:08:23.353Z,17.24
2023-10-18T17:10:50.945Z,17.91
2023-10-18T17:13:17.938Z,17.41
2023-10-18T17:15:48.276Z,17.39
2023-10-18T17:18:15.414Z,17.36
2023-10-18T17:20:42.640Z,17.88
2023-10-18T17:23:09.733Z,16.76
2023-10-18T17:25:37.457Z,16.34
2023-10-18T17:28:05.407Z,16.66
2023-10-18T17:30:32.785Z,16.83
2023-10-18T17:33:02.947Z,17.89
2023-10-18T17:35:30.088Z,17.96
2023-10-18T17:37:57.106Z,17.09
2023-10-18T17:40:24.397Z,16.59
2023-10-18T17:42:51.985Z,16.84
2023-10-18T17:45:19.385Z,16.97
2023-10-18T17:47:47.801Z,16.69
2023-10-18T17:50:19.469Z,17.03
2023-10-18T17:52:48.684Z,17.01
2023-10-18T17:55:17.452Z,16.61
2023-10-18T17:57:45.017Z,16.36
2023-10-18T18:00:14.001Z,16.80
2023-10-18T18:02:41.187Z,16.81
2023-10-18T18:05:08.642Z,16.91
2023-10-18T18:07:38.252Z,16.96
2023-10-18T18:10:06.495Z,16.85
2023-10-18T18:12:33.608Z,17.54
2023-10-18T18:15:00.721Z,17.57
2023-10-18T18:17:28.019Z,17.23
2023-10-18T18:19:55.168Z,16.86
2023-10-18T18:22:22.140Z,17.95
2023-10-18T18:24:51.762Z,18.34
2023-10-18T18:27:18.750Z,18.54
2023-10-18T18:29:45.820Z,18.77
2023-10-18T18:32:12.962Z,19.09
2023-10-18T18:34:39.957Z,19.17
2023-10-18T18:37:07.094Z,19.50
2023-10-18T18:39:34.239Z,19.17
2023-10-18T18:42:04.119Z,19.39
2023-10-18T18:44:31.327Z,19.65
2023-10-18T18:46:58.409Z,20.21
2023-10-18T18:49:25.495Z,19.53
2023-10-18T18:51:52.498Z,19.66
2023-10-18T18:54:19.596Z,20.43
2023-10-18T18:56:46.732Z,19.87
2023-10-18T18:59:16.531Z,18.66
2023-10-18T19:01:44.547Z,19.83
2023-10-18T19:04:11.893Z,18.38
2023-10-18T19:06:39.091Z,18.93
2023-10-18T19:09:06.357Z,18.97
2023-10-18T19:11:33.499Z,19.60
2023-10-18T19:14:00.688Z,18.55
2023-10-18T19:16:31.262Z,18.25
2023-10-18T19:18:58.261Z,18.59
2023-10-18T19:21:25.322Z,19.51
2023-10-18T19:23:52.440Z,21.18
2023-10-18T19:26:19.837Z,20.28
2023-10-18T19:28:47.451Z,20.40
2023-10-18T19:31:16.135Z,20.29
2023-10-18T19:33:47.075Z,20.14
2023-10-18T19:36:14.245Z,20.35
2023-10-18T19:38:41.362Z,19.30
2023-10-18T19:41:08.740Z,19.59
2023-10-18T19:43:35.778Z,19.33
2023-10-18T19:46:03.095Z,19.32
2023-10-18T19:48:30.155Z,18.98
2023-10-18T19:50:59.766Z,19.34
2023-10-18T19:53:26.892Z,20.10
2023-10-18T19:55:53.940Z,19.00
2023-10-18T19:58:20.945Z,19.47
2023-10-18T20:00:48.397Z,17.97
2023-10-18T20:03:15.639Z,17.29
2023-10-18T20:05:42.985Z,17.48
2023-10-18T20:08:12.988Z,18.47
2023-10-18T20:10:40.180Z,17.08
2023-10-18T20:13:07.210Z,17.51
2023-10-18T20:15:34.931Z,17.04
2023-10-18T20:18:02.079Z,17.66
2023-10-18T20:20:29.648Z,16.92
2023-10-18T20:22:56.671Z,18.26
2023-10-18T20:25:26.333Z,17.98
2023-10-18T20:27:53.703Z,18.37
2023-10-18T20:30:20.689Z,18.39
2023-10-18T20:32:47.798Z,17.33
2023-10-18T20:35:15.539Z,17.82
2023-10-18T20:37:42.961Z,18.24
2023-10-18T20:40:11.204Z,17.91
2023-10-18T20:42:40.888Z,17.99
2023-10-18T20:45:09.021Z,17.98
2023-10-18T20:47:36.444Z,17.48
2023-10-18T20:50:04.118Z,17.16
2023-10-18T20:52:31.273Z,17.26
2023-10-18T20:54:58.304Z,18.34
2023-10-18T20:57:25.440Z,19.74
2023-10-18T20:59:55.184Z,19.46
2023-10-18T21:02:22.439Z,17.57
2023-10-18T21:04:50.021Z,17.51
2023-10-18T21:07:17.796Z,17.72
2023-10-18T21:09:45.017Z,16.97
2023-10-18T21:12:12.313Z,17.50
2023-10-18T21:14:39.412Z,17.29
2023-10-18T21:17:09.221Z,16.90
2023-10-18T21:19:36.345Z,17.90
2023-10-18T21:22:05.013Z,19.49
2023-10-18T21:24:32.236Z,18.52
2023-10-18T21:26:59.464Z,17.89
2023-10-18T21:29:26.678Z,17.65
2023-10-18T21:31:53.776Z,17.14
2023-10-18T21:34:23.484Z,16.71
2023-10-18T21:36:50.480Z,16.73
2023-10-18T21:39:17.475Z,17.01
2023-10-18T21:41:44.487Z,16.69
2023-10-18T21:44:11.553Z,16.57
2023-10-18T21:46:38.631Z,16.80
2023-10-18T21:49:05.945Z,17.08
2023-10-18T21:51:35.705Z,16.89
2023-10-18T21:54:02.715Z,17.22
2023-10-18T21:56:29.688Z,16.90
2023-10-18T21:58:56.746Z,17.15
2023-10-18T22:01:23.814Z,16.87
2023-10-18T22:03:50.906Z,17.66
2023-10-18T22:06:17.953Z,17.56
2023-10-18T22:08:47.612Z,17.71
2023-10-18T22:11:14.628Z,17.58
2023-10-18T22:13:41.717Z,17.08
2023-10-18T22:16:08.857Z,16.83
2023-10-18T22:18:35.897Z,16.58
2023-10-18T22:21:02.925Z,16.79
2023-10-18T22:23:30.889Z,16.99
2023-10-18T22:26:13.847Z,16.86
2023-10-18T22:28:41.993Z,16.75
2023-10-18T22:31:09.618Z,17.05
2023-10-18T22:33:36.873Z,17.33
2023-10-18T22:36:04.622Z,17.05
2023-10-18T22:38:31.644Z,17.40
2023-10-18T22:41:01.220Z,16.72
2023-10-18T22:43:28.293Z,17.10
2023-10-18T22:45:55.364Z,16.48
2023-10-18T22:48:22.936Z,16.41
2023-10-18T22:50:50.086Z,16.65
2023-10-18T22:53:17.115Z,16.48
2023-10-18T22:55:44.188Z,16.96
2023-10-18T22:58:13.957Z,17.23
2023-10-18T23:00:41.034Z,17.45
2023-10-18T23:03:09.830Z,17.01
2023-10-18T23:05:37.688Z,16.72
2023-10-18T23:08:05.489Z,16.78
2023-10-18T23:10:32.463Z,16.23
2023-10-18T23:12:59.431Z,16.12
2023-10-18T23:15:29.020Z,16.23
2023-10-18T23:17:55.978Z,16.97
2023-10-18T23:20:23.039Z,16.72
2023-10-18T23:22:50.106Z,16.88
2023-10-18T23:25:17.357Z,16.68
2023-10-18T23:27:44.404Z,16.38
2023-10-18T23:30:12.128Z,16.66
2023-10-18T23:32:41.873Z,15.62
2023-10-18T23:35:09.337Z,16.40
2023-10-18T23:37:36.335Z,16.28
2023-10-18T23:40:04.462Z,15.89
2023-10-18T23:42:31.425Z,15.75
2023-10-18T23:44:58.406Z,15.60
2023-10-18T23:47:27.385Z,15.88
2023-10-18T23:49:57.004Z,15.86
2023-10-18T23:52:24.076Z,15.60
2023-10-18T23:54:51.221Z,16.38
2023-10-18T23:57:18.241Z,16.03
2023-10-18T23:59:45.196Z,15.41
